nws-alerts: Checking more than four warning/county codes can delay the loading of your pages. You should use a cron job to get the data.
EllijayWeather Station Historical Data
 
Daily Summary for November 21, 2019 Units:  English    Metric   Both
Daily Weekly Monthly Yearly Custom
  Current: High: Low: Average:
Temperature: 35.4 °F 37.6 °F 35.2 °F 35.9 °F
Dew Point: 33.8 °F 35.4 °F 33.6 °F 34.4 °F
Humidity: 94% 95% 92% 94%
Wind Speed: 0mph 0mph 0mph 0mph
Wind Gust: 0mph 0mph - -
WindCalm - - North
Pressure: 30.33 in 30.33 in 30.28 in -
Precipitation: 0 in      
Historical Graphs
 
 
Tabular Data for November 21, 2019
Time Temperature Dew Point Pressure Wind Wind Speed Wind Gust Humidity Rainfall Rate (Hourly) solar
00:00 37.6 °F 35.4 °F 30.28 in Calm     92% 0 in meteobridge W/m2
00:05 37.6 °F 35.4 °F 30.28 in Calm     92% 0 in meteobridge W/m2
00:10 37.6 °F 35.4 °F 30.29 in Calm     92% 0 in meteobridge W/m2
00:15 37.2 °F 35.1 °F 30.28 in Calm     92% 0 in meteobridge W/m2
00:20 37.2 °F 35.1 °F 30.28 in Calm     92% 0 in meteobridge W/m2
00:25 37 °F 34.9 °F 30.29 in Calm     92% 0 in meteobridge W/m2
00:30 37 °F 35.2 °F 30.29 in Calm     93% 0 in meteobridge W/m2
00:36 36.9 °F 35.1 °F 30.29 in Calm     93% 0 in meteobridge W/m2
00:40 36.9 °F 35.1 °F 30.29 in Calm     93% 0 in meteobridge W/m2
00:45 36.9 °F 35.1 °F 30.29 in Calm     93% 0 in meteobridge W/m2
00:50 36.7 °F 34.9 °F 30.28 in Calm     93% 0 in meteobridge W/m2
00:55 36.7 °F 34.9 °F 30.29 in Calm     93% 0 in meteobridge W/m2
01:00 36.7 °F 34.9 °F 30.29 in Calm     93% 0 in meteobridge W/m2
01:05 36.3 °F 34.5 °F 30.29 in Calm     93% 0 in meteobridge W/m2
01:10 36.3 °F 34.5 °F 30.29 in Calm     93% 0 in meteobridge W/m2
01:15 36.3 °F 34.5 °F 30.29 in Calm     93% 0 in meteobridge W/m2
01:20 36.1 °F 34.5 °F 30.29 in Calm     94% 0 in meteobridge W/m2
01:25 36.1 °F 34.5 °F 30.29 in Calm     94% 0 in meteobridge W/m2
01:30 36.1 °F 34.3 °F 30.30 in Calm     93% 0 in meteobridge W/m2
01:35 36.1 °F 34.3 °F 30.29 in Calm     93% 0 in meteobridge W/m2
01:40 36.1 °F 34.5 °F 30.29 in Calm     94% 0 in meteobridge W/m2
01:45 36 °F 34.3 °F 30.30 in Calm     94% 0 in meteobridge W/m2
01:50 36 °F 34.3 °F 30.30 in Calm     94% 0 in meteobridge W/m2
01:55 35.8 °F 34.2 °F 30.30 in Calm     94% 0 in meteobridge W/m2
02:00 35.8 °F 34.2 °F 30.30 in Calm     94% 0 in meteobridge W/m2
02:05 35.8 °F 34.2 °F 30.30 in Calm     94% 0 in meteobridge W/m2
02:10 35.8 °F 34.2 °F 30.30 in Calm     94% 0 in meteobridge W/m2
02:15 35.8 °F 34.2 °F 30.31 in Calm     94% 0 in meteobridge W/m2
02:20 35.8 °F 34.2 °F 30.31 in Calm     94% 0 in meteobridge W/m2
02:25 35.8 °F 34.2 °F 30.31 in Calm     94% 0 in meteobridge W/m2
02:30 35.8 °F 34.2 °F 30.30 in Calm     94% 0 in meteobridge W/m2
02:35 35.8 °F 34.2 °F 30.31 in Calm     94% 0 in meteobridge W/m2
02:40 35.8 °F 34.5 °F 30.32 in Calm     95% 0 in meteobridge W/m2
02:45 35.8 °F 34.2 °F 30.31 in Calm     94% 0 in meteobridge W/m2
02:50 35.6 °F 34 °F 30.31 in Calm     94% 0 in meteobridge W/m2
02:55 35.6 °F 34 °F 30.32 in Calm     94% 0 in meteobridge W/m2
03:00 35.4 °F 33.8 °F 30.32 in Calm     94% 0 in meteobridge W/m2
03:05 35.4 °F 33.8 °F 30.32 in Calm     94% 0 in meteobridge W/m2
03:10 35.2 °F 33.6 °F 30.31 in Calm     94% 0 in meteobridge W/m2
03:15 35.2 °F 33.6 °F 30.30 in Calm     94% 0 in meteobridge W/m2
03:20 35.2 °F 33.6 °F 30.30 in Calm     94% 0 in meteobridge W/m2
03:25 35.2 °F 34 °F 30.30 in Calm     95% 0 in meteobridge W/m2
03:30 35.2 °F 34 °F 30.30 in Calm     95% 0 in meteobridge W/m2
03:35 35.4 °F 34.2 °F 30.29 in Calm     95% 0 in meteobridge W/m2
03:40 35.4 °F 34.2 °F 30.29 in Calm     95% 0 in meteobridge W/m2
03:45 35.6 °F 34.3 °F 30.30 in Calm     95% 0 in meteobridge W/m2
03:50 35.8 °F 34.5 °F 30.30 in Calm     95% 0 in meteobridge W/m2
03:55 35.8 °F 34.5 °F 30.30 in Calm     95% 0 in meteobridge W/m2
04:00 36 °F 34.7 °F 30.30 in Calm     95% 0 in meteobridge W/m2
04:05 36 °F 34.7 °F 30.30 in Calm     95% 0 in meteobridge W/m2
04:10 36 °F 34.7 °F 30.30 in Calm     95% 0 in meteobridge W/m2
04:15 36 °F 34.7 °F 30.31 in Calm     95% 0 in meteobridge W/m2
04:20 36 °F 34.7 °F 30.31 in Calm     95% 0 in meteobridge W/m2
04:25 36 °F 34.3 °F 30.31 in Calm     94% 0 in meteobridge W/m2
04:30 36 °F 34.3 °F 30.30 in Calm     94% 0 in meteobridge W/m2
04:35 35.6 °F 34 °F 30.30 in Calm     94% 0 in meteobridge W/m2
04:40 35.4 °F 33.8 °F 30.30 in Calm     94% 0 in meteobridge W/m2
04:45 35.4 °F 33.8 °F 30.30 in Calm     94% 0 in meteobridge W/m2
04:50 35.4 °F 33.8 °F 30.30 in Calm     94% 0 in meteobridge W/m2
04:55 35.2 °F 33.6 °F 30.31 in Calm     94% 0 in meteobridge W/m2
05:00 35.2 °F 34 °F 30.31 in Calm     95% 0 in meteobridge W/m2
05:05 35.2 °F 34 °F 30.31 in Calm     95% 0 in meteobridge W/m2
05:10 35.4 °F 34.2 °F 30.31 in Calm     95% 0 in meteobridge W/m2
05:15 35.4 °F 34.2 °F 30.32 in Calm     95% 0 in meteobridge W/m2
05:20 35.6 °F 34.3 °F 30.32 in Calm     95% 0 in meteobridge W/m2
05:25 35.6 °F 34.3 °F 30.32 in Calm     95% 0 in meteobridge W/m2
05:30 35.8 °F 34.5 °F 30.32 in Calm     95% 0 in meteobridge W/m2
05:35 35.8 °F 34.5 °F 30.32 in Calm     95% 0 in meteobridge W/m2
05:40 35.8 °F 34.5 °F 30.32 in Calm     95% 0 in meteobridge W/m2
05:45 35.8 °F 34.5 °F 30.32 in Calm     95% 0 in meteobridge W/m2
05:50 35.8 °F 34.5 °F 30.32 in Calm     95% 0 in meteobridge W/m2
05:55 35.8 °F 34.5 °F 30.32 in Calm     95% 0 in meteobridge W/m2
06:00 36 °F 34.7 °F 30.32 in Calm     95% 0 in meteobridge W/m2
06:05 36 °F 34.7 °F 30.32 in Calm     95% 0 in meteobridge W/m2
06:10 36 °F 34.7 °F 30.32 in Calm     95% 0 in meteobridge W/m2
06:15 36 °F 34.7 °F 30.32 in Calm     95% 0 in meteobridge W/m2
06:20 35.8 °F 34.5 °F 30.33 in Calm     95% 0 in meteobridge W/m2
06:25 35.8 °F 34.2 °F 30.33 in Calm     94% 0 in meteobridge W/m2
06:30 35.8 °F 34.2 °F 30.33 in Calm     94% 0 in meteobridge W/m2
06:35 35.4 °F 33.8 °F 30.33 in Calm     94% 0 in meteobridge W/m2
06:40 35.4 °F 33.8 °F 30.33 in Calm     94% 0 in meteobridge W/m2
EllijayWeather
Compliments of Weather Underground - 1.5 mb